sensor_id;sensor_type;location;lat;lon;timestamp;pressure;altitude;pressure_sealevel;temperature;humidity
55590;BME280;41452;42.780;23.116;2022-09-03T00:01:34;94353.72;;;15.07;100.00
55590;BME280;41452;42.780;23.116;2022-09-03T00:04:02;94356.38;;;15.07;100.00
55590;BME280;41452;42.780;23.116;2022-09-03T00:06:38;94322.91;;;14.75;100.00
55590;BME280;41452;42.780;23.116;2022-09-03T00:09:10;94325.50;;;14.70;100.00
55590;BME280;41452;42.780;23.116;2022-09-03T00:11:52;94322.84;;;14.65;100.00
55590;BME280;41452;42.780;23.116;2022-09-03T00:14:27;94310.06;;;14.52;100.00
55590;BME280;41452;42.780;23.116;2022-09-03T00:17:31;94357.63;;;14.89;100.00
55590;BME280;41452;42.780;23.116;2022-09-03T00:20:05;94349.66;;;14.84;100.00
55590;BME280;41452;42.780;23.116;2022-09-03T00:22:42;94345.97;;;14.90;100.00
55590;BME280;41452;42.780;23.116;2022-09-03T00:25:20;94327.69;;;14.78;100.00
55590;BME280;41452;42.780;23.116;2022-09-03T00:27:50;94339.91;;;14.95;100.00
55590;BME280;41452;42.780;23.116;2022-09-03T00:30:20;94328.75;;;14.82;100.00
55590;BME280;41452;42.780;23.116;2022-09-03T00:33:03;94295.88;;;14.63;100.00
55590;BME280;41452;42.780;23.116;2022-09-03T00:35:46;94335.97;;;14.92;100.00
55590;BME280;41452;42.780;23.116;2022-09-03T00:38:13;94276.22;;;14.49;100.00
55590;BME280;41452;42.780;23.116;2022-09-03T00:43:36;94338.56;;;14.87;100.00
55590;BME280;41452;42.780;23.116;2022-09-03T00:49:27;94344.94;;;14.91;100.00
55590;BME280;41452;42.780;23.116;2022-09-03T00:54:55;94327.72;;;14.83;100.00
55590;BME280;41452;42.780;23.116;2022-09-03T01:00:19;94352.09;;;14.96;100.00
55590;BME280;41452;42.780;23.116;2022-09-03T01:05:30;94286.53;;;14.50;100.00
55590;BME280;41452;42.780;23.116;2022-09-03T01:16:36;94354.72;;;14.91;100.00
55590;BME280;41452;42.780;23.116;2022-09-03T01:19:37;94354.47;;;14.92;100.00
55590;BME280;41452;42.780;23.116;2022-09-03T01:30:41;94338.75;;;14.75;100.00
55590;BME280;41452;42.780;23.116;2022-09-03T01:36:40;94375.84;;;14.86;100.00
55590;BME280;41452;42.780;23.116;2022-09-03T01:39:20;94369.44;;;14.81;100.00
55590;BME280;41452;42.780;23.116;2022-09-03T01:42:31;94386.44;;;14.91;100.00
55590;BME280;41452;42.780;23.116;2022-09-03T02:01:32;94321.63;;;14.45;100.00
55590;BME280;41452;42.780;23.116;2022-09-03T02:04:00;94371.63;;;14.90;100.00
55590;BME280;41452;42.780;23.116;2022-09-03T02:06:27;94352.72;;;14.71;100.00
55590;BME280;41452;42.780;23.116;2022-09-03T02:08:53;94375.91;;;14.96;100.00
55590;BME280;41452;42.780;23.116;2022-09-03T02:11:19;94373.22;;;14.91;100.00
55590;BME280;41452;42.780;23.116;2022-09-03T02:13:49;94357.34;;;14.86;100.00
55590;BME280;41452;42.780;23.116;2022-09-03T02:16:22;94352.28;;;14.84;100.00
55590;BME280;41452;42.780;23.116;2022-09-03T02:19:02;94346.47;;;14.82;100.00
55590;BME280;41452;42.780;23.116;2022-09-03T02:21:34;94360.47;;;14.82;100.00
55590;BME280;41452;42.780;23.116;2022-09-03T02:24:02;94378.47;;;14.86;100.00
55590;BME280;41452;42.780;23.116;2022-09-03T02:26:27;94395.19;;;14.96;100.00
55590;BME280;41452;42.780;23.116;2022-09-03T02:28:53;94303.72;;;14.53;100.00
55590;BME280;41452;42.780;23.116;2022-09-03T02:31:20;94377.50;;;15.02;100.00
55590;BME280;41452;42.780;23.116;2022-09-03T02:33:47;94376.72;;;15.01;100.00
55590;BME280;41452;42.780;23.116;2022-09-03T02:36:16;94382.00;;;15.01;100.00
55590;BME280;41452;42.780;23.116;2022-09-03T02:38:43;94383.03;;;15.00;100.00
55590;BME280;41452;42.780;23.116;2022-09-03T02:41:09;94342.44;;;14.69;100.00
55590;BME280;41452;42.780;23.116;2022-09-03T02:44:02;94362.06;;;14.78;100.00
55590;BME280;41452;42.780;23.116;2022-09-03T02:46:39;94363.63;;;14.79;100.00
55590;BME280;41452;42.780;23.116;2022-09-03T02:49:06;94376.38;;;14.88;100.00
55590;BME280;41452;42.780;23.116;2022-09-03T02:51:38;94382.75;;;14.97;100.00
55590;BME280;41452;42.780;23.116;2022-09-03T02:54:04;94383.31;;;14.99;100.00
55590;BME280;41452;42.780;23.116;2022-09-03T02:56:30;94379.34;;;14.96;100.00
55590;BME280;41452;42.780;23.116;2022-09-03T02:58:55;94385.97;;;15.04;100.00
55590;BME280;41452;42.780;23.116;2022-09-03T03:01:21;94345.94;;;14.80;100.00
55590;BME280;41452;42.780;23.116;2022-09-03T03:03:46;94375.69;;;15.08;100.00
55590;BME280;41452;42.780;23.116;2022-09-03T03:06:12;94359.47;;;14.94;100.00
55590;BME280;41452;42.780;23.116;2022-09-03T03:08:38;94348.59;;;14.90;100.00
55590;BME280;41452;42.780;23.116;2022-09-03T03:11:04;94382.34;;;15.15;100.00
55590;BME280;41452;42.780;23.116;2022-09-03T03:13:31;94370.09;;;15.04;100.00
55590;BME280;41452;42.780;23.116;2022-09-03T03:16:02;94358.97;;;14.97;100.00
55590;BME280;41452;42.780;23.116;2022-09-03T03:18:30;94317.09;;;14.73;100.00
55590;BME280;41452;42.780;23.116;2022-09-03T03:20:56;94341.47;;;14.86;100.00
55590;BME280;41452;42.780;23.116;2022-09-03T03:23:21;94356.06;;;14.98;100.00
55590;BME280;41452;42.780;23.116;2022-09-03T03:25:47;94379.66;;;15.10;100.00
55590;BME280;41452;42.780;23.116;2022-09-03T03:28:12;94330.34;;;14.83;100.00
55590;BME280;41452;42.780;23.116;2022-09-03T03:30:38;94380.22;;;15.17;100.00
55590;BME280;41452;42.780;23.116;2022-09-03T03:33:05;94379.41;;;15.17;100.00
55590;BME280;41452;42.780;23.116;2022-09-03T03:35:31;94375.16;;;15.11;100.00
55590;BME280;41452;42.780;23.116;2022-09-03T03:37:58;94379.41;;;15.12;100.00
55590;BME280;41452;42.780;23.116;2022-09-03T03:40:23;94357.34;;;14.91;100.00
55590;BME280;41452;42.780;23.116;2022-09-03T03:42:49;94382.03;;;15.07;100.00
55590;BME280;41452;42.780;23.116;2022-09-03T03:45:14;94380.69;;;15.04;100.00
55590;BME280;41452;42.780;23.116;2022-09-03T03:47:40;94365.03;;;14.92;100.00
55590;BME280;41452;42.780;23.116;2022-09-03T03:50:06;94368.47;;;14.93;100.00
55590;BME280;41452;42.780;23.116;2022-09-03T03:52:31;94335.59;;;14.73;100.00
55590;BME280;41452;42.780;23.116;2022-09-03T03:54:57;94380.91;;;14.97;100.00
55590;BME280;41452;42.780;23.116;2022-09-03T03:57:22;94387.00;;;14.98;100.00
55590;BME280;41452;42.780;23.116;2022-09-03T03:59:48;94371.41;;;14.96;100.00
55590;BME280;41452;42.780;23.116;2022-09-03T04:02:13;94376.44;;;14.98;100.00
55590;BME280;41452;42.780;23.116;2022-09-03T04:04:39;94346.69;;;14.75;100.00
55590;BME280;41452;42.780;23.116;2022-09-03T04:07:04;94344.56;;;14.72;100.00
55590;BME280;41452;42.780;23.116;2022-09-03T04:09:30;94382.25;;;15.00;100.00
55590;BME280;41452;42.780;23.116;2022-09-03T04:11:56;94390.22;;;15.05;100.00
55590;BME280;41452;42.780;23.116;2022-09-03T04:14:25;94392.63;;;15.07;100.00
55590;BME280;41452;42.780;23.116;2022-09-03T04:16:53;94355.97;;;14.83;100.00
55590;BME280;41452;42.780;23.116;2022-09-03T04:19:20;94402.13;;;15.08;100.00
55590;BME280;41452;42.780;23.116;2022-09-03T04:21:46;94405.31;;;15.10;100.00
55590;BME280;41452;42.780;23.116;2022-09-03T04:24:11;94411.91;;;15.07;100.00
55590;BME280;41452;42.780;23.116;2022-09-03T04:26:37;94401.34;;;15.07;100.00
55590;BME280;41452;42.780;23.116;2022-09-03T04:29:08;94426.44;;;15.05;100.00
55590;BME280;41452;42.780;23.116;2022-09-03T04:31:35;94430.94;;;15.04;100.00
55590;BME280;41452;42.780;23.116;2022-09-03T04:34:01;94428.28;;;15.04;100.00
55590;BME280;41452;42.780;23.116;2022-09-03T04:36:29;94433.56;;;15.04;100.00
55590;BME280;41452;42.780;23.116;2022-09-03T04:38:57;94429.34;;;15.03;100.00
55590;BME280;41452;42.780;23.116;2022-09-03T04:41:25;94413.13;;;14.89;100.00
55590;BME280;41452;42.780;23.116;2022-09-03T04:43:52;94430.63;;;14.95;100.00
55590;BME280;41452;42.780;23.116;2022-09-03T04:46:19;94449.41;;;14.99;100.00
55590;BME280;41452;42.780;23.116;2022-09-03T04:48:48;94443.59;;;14.97;100.00
55590;BME280;41452;42.780;23.116;2022-09-03T04:51:18;94449.38;;;14.94;100.00
55590;BME280;41452;42.780;23.116;2022-09-03T04:53:45;94443.75;;;14.80;100.00
55590;BME280;41452;42.780;23.116;2022-09-03T04:56:19;94462.56;;;14.89;100.00
55590;BME280;41452;42.780;23.116;2022-09-03T04:58:45;94468.41;;;14.91;100.00
55590;BME280;41452;42.780;23.116;2022-09-03T05:01:15;94457.78;;;14.86;100.00
55590;BME280;41452;42.780;23.116;2022-09-03T05:03:41;94468.88;;;14.82;100.00
55590;BME280;41452;42.780;23.116;2022-09-03T05:06:06;94437.59;;;14.69;100.00
55590;BME280;41452;42.780;23.116;2022-09-03T05:08:34;94421.59;;;14.54;100.00
55590;BME280;41452;42.780;23.116;2022-09-03T05:11:05;94454.03;;;14.76;100.00
55590;BME280;41452;42.780;23.116;2022-09-03T05:13:32;94436.19;;;14.61;100.00
55590;BME280;41452;42.780;23.116;2022-09-03T05:16:06;94464.38;;;14.83;100.00
55590;BME280;41452;42.780;23.116;2022-09-03T05:18:32;94443.47;;;14.76;100.00
55590;BME280;41452;42.780;23.116;2022-09-03T05:21:08;94453.53;;;14.85;100.00
55590;BME280;41452;42.780;23.116;2022-09-03T05:23:39;94453.00;;;14.82;100.00
55590;BME280;41452;42.780;23.116;2022-09-03T05:51:58;94448.78;;;15.29;100.00
55590;BME280;41452;42.780;23.116;2022-09-03T05:54:23;94409.31;;;15.12;100.00
55590;BME280;41452;42.780;23.116;2022-09-03T05:56:48;94438.50;;;15.33;100.00
55590;BME280;41452;42.780;23.116;2022-09-03T05:59:14;94416.72;;;15.20;100.00
55590;BME280;41452;42.780;23.116;2022-09-03T06:01:42;94445.41;;;15.39;100.00
55590;BME280;41452;42.780;23.116;2022-09-03T06:04:12;94446.16;;;15.29;100.00
55590;BME280;41452;42.780;23.116;2022-09-03T06:06:40;94433.69;;;15.25;100.00
55590;BME280;41452;42.780;23.116;2022-09-03T06:09:11;94454.38;;;15.38;100.00
55590;BME280;41452;42.780;23.116;2022-09-03T06:11:38;94423.56;;;15.11;100.00
55590;BME280;41452;42.780;23.116;2022-09-03T06:14:06;94470.00;;;15.34;100.00
55590;BME280;41452;42.780;23.116;2022-09-03T06:16:35;94419.81;;;15.02;100.00
55590;BME280;41452;42.780;23.116;2022-09-03T06:19:02;94465.78;;;15.38;100.00
55590;BME280;41452;42.780;23.116;2022-09-03T06:21:28;94468.69;;;15.37;100.00
55590;BME280;41452;42.780;23.116;2022-09-03T06:23:56;94422.97;;;14.99;100.00
55590;BME280;41452;42.780;23.116;2022-09-03T06:26:22;94466.31;;;15.35;100.00
55590;BME280;41452;42.780;23.116;2022-09-03T06:28:48;94472.91;;;15.38;100.00
55590;BME280;41452;42.780;23.116;2022-09-03T06:31:16;94438.94;;;15.14;100.00
55590;BME280;41452;42.780;23.116;2022-09-03T06:33:42;94482.75;;;15.43;100.00
55590;BME280;41452;42.780;23.116;2022-09-03T06:36:10;94476.66;;;15.47;100.00
55590;BME280;41452;42.780;23.116;2022-09-03T06:38:38;94479.59;;;15.51;100.00
55590;BME280;41452;42.780;23.116;2022-09-03T06:41:06;94471.94;;;15.54;100.00
55590;BME280;41452;42.780;23.116;2022-09-03T06:43:40;94466.13;;;15.57;100.00
55590;BME280;41452;42.780;23.116;2022-09-03T06:46:11;94461.34;;;15.49;100.00
55590;BME280;41452;42.780;23.116;2022-09-03T06:48:37;94478.31;;;15.58;99.86
55590;BME280;41452;42.780;23.116;2022-09-03T06:53:37;94475.63;;;15.48;98.65
55590;BME280;41452;42.780;23.116;2022-09-03T06:56:05;94496.34;;;15.62;99.56
55590;BME280;41452;42.780;23.116;2022-09-03T06:58:32;94453.88;;;15.41;99.68
55590;BME280;41452;42.780;23.116;2022-09-03T07:01:14;94486.31;;;15.69;100.00
55590;BME280;41452;42.780;23.116;2022-09-03T07:03:41;94488.97;;;15.69;99.65
55590;BME280;41452;42.780;23.116;2022-09-03T07:08:34;94485.56;;;15.78;98.92
55590;BME280;41452;42.780;23.116;2022-09-03T07:11:06;94499.88;;;15.77;98.23
55590;BME280;41452;42.780;23.116;2022-09-03T07:13:37;94499.34;;;15.81;97.71
55590;BME280;41452;42.780;23.116;2022-09-03T07:16:07;94496.22;;;15.89;98.57
55590;BME280;41452;42.780;23.116;2022-09-03T07:18:33;94506.56;;;15.95;97.01
55590;BME280;41452;42.780;23.116;2022-09-03T07:21:01;94503.38;;;15.99;97.62
55590;BME280;41452;42.780;23.116;2022-09-03T07:23:28;94508.97;;;16.02;96.96
55590;BME280;41452;42.780;23.116;2022-09-03T07:25:56;94508.19;;;16.07;97.00
55590;BME280;41452;42.780;23.116;2022-09-03T07:28:22;94517.72;;;16.13;97.17
55590;BME280;41452;42.780;23.116;2022-09-03T07:30:49;94519.31;;;16.09;96.45
55590;BME280;41452;42.780;23.116;2022-09-03T07:33:15;94498.66;;;16.01;96.26
55590;BME280;41452;42.780;23.116;2022-09-03T07:35:41;94520.94;;;16.20;95.73
55590;BME280;41452;42.780;23.116;2022-09-03T07:38:06;94510.06;;;16.11;95.62
55590;BME280;41452;42.780;23.116;2022-09-03T07:40:32;94489.88;;;15.95;96.43
55590;BME280;41452;42.780;23.116;2022-09-03T07:42:57;94513.53;;;16.17;96.19
55590;BME280;41452;42.780;23.116;2022-09-03T07:45:28;94498.13;;;16.09;96.21
55590;BME280;41452;42.780;23.116;2022-09-03T07:47:54;94517.78;;;16.28;96.92
55590;BME280;41452;42.780;23.116;2022-09-03T07:50:19;94512.47;;;16.28;95.14
55590;BME280;41452;42.780;23.116;2022-09-03T07:52:45;94452.25;;;15.93;96.86
55590;BME280;41452;42.780;23.116;2022-09-03T07:55:11;94528.69;;;16.47;96.10
55590;BME280;41452;42.780;23.116;2022-09-03T07:57:37;94526.84;;;16.48;97.30
55590;BME280;41452;42.780;23.116;2022-09-03T08:00:03;94510.66;;;16.39;94.48
55590;BME280;41452;42.780;23.116;2022-09-03T08:02:30;94469.28;;;16.18;95.58
55590;BME280;41452;42.780;23.116;2022-09-03T08:04:56;94527.91;;;16.57;95.03
55590;BME280;41452;42.780;23.116;2022-09-03T08:07:21;94489.19;;;16.41;95.18
55590;BME280;41452;42.780;23.116;2022-09-03T08:09:47;94400.88;;;15.89;93.74
55590;BME280;41452;42.780;23.116;2022-09-03T08:12:12;94525.00;;;16.69;94.60
55590;BME280;41452;42.780;23.116;2022-09-03T08:14:37;94513.06;;;16.56;94.24
55590;BME280;41452;42.780;23.116;2022-09-03T08:17:03;94500.88;;;16.55;94.72
55590;BME280;41452;42.780;23.116;2022-09-03T08:19:28;94516.53;;;16.67;92.91
55590;BME280;41452;42.780;23.116;2022-09-03T08:21:54;94525.28;;;16.78;92.95
55590;BME280;41452;42.780;23.116;2022-09-03T08:24:19;94517.06;;;16.74;93.95
55590;BME280;41452;42.780;23.116;2022-09-03T08:26:49;94496.63;;;16.69;93.64
55590;BME280;41452;42.780;23.116;2022-09-03T08:29:15;94477.53;;;16.62;92.65
55590;BME280;41452;42.780;23.116;2022-09-03T08:31:40;94516.56;;;16.77;91.23
55590;BME280;41452;42.780;23.116;2022-09-03T08:34:07;94528.00;;;16.93;92.15
55590;BME280;41452;42.780;23.116;2022-09-03T08:36:34;94526.38;;;16.97;92.44
55590;BME280;41452;42.780;23.116;2022-09-03T08:39:02;94522.13;;;16.96;92.71
55590;BME280;41452;42.780;23.116;2022-09-03T08:44:22;94530.09;;;17.17;90.56
55590;BME280;41452;42.780;23.116;2022-09-03T08:49:48;94534.88;;;17.20;89.86
55590;BME280;41452;42.780;23.116;2022-09-03T08:53:16;94501.19;;;17.00;90.32
55590;BME280;41452;42.780;23.116;2022-09-03T08:55:36;94497.72;;;16.94;88.41
55590;BME280;41452;42.780;23.116;2022-09-03T08:58:18;94528.50;;;17.10;91.36
55590;BME280;41452;42.780;23.116;2022-09-03T09:05:52;94532.19;;;17.30;89.53
55590;BME280;41452;42.780;23.116;2022-09-03T09:08:26;94535.66;;;17.31;87.88
55590;BME280;41452;42.780;23.116;2022-09-03T09:11:20;94521.06;;;17.28;89.28
55590;BME280;41452;42.780;23.116;2022-09-03T09:13:58;94534.84;;;17.40;90.65
55590;BME280;41452;42.780;23.116;2022-09-03T09:22:01;94548.03;;;17.71;90.80
55590;BME280;41452;42.780;23.116;2022-09-03T09:24:37;94545.38;;;17.81;90.72
55590;BME280;41452;42.780;23.116;2022-09-03T09:27:05;94520.44;;;17.67;87.91
55590;BME280;41452;42.780;23.116;2022-09-03T09:29:34;94540.06;;;17.86;87.30
55590;BME280;41452;42.780;23.116;2022-09-03T09:31:59;94533.13;;;17.91;84.80
55590;BME280;41452;42.780;23.116;2022-09-03T09:34:25;94449.63;;;17.47;86.30
55590;BME280;41452;42.780;23.116;2022-09-03T09:36:53;94535.97;;;18.20;88.07
55590;BME280;41452;42.780;23.116;2022-09-03T09:39:20;94544.44;;;18.27;86.42
55590;BME280;41452;42.780;23.116;2022-09-03T09:42:00;94543.06;;;18.35;87.18
55590;BME280;41452;42.780;23.116;2022-09-03T09:44:34;94544.13;;;18.34;84.88
55590;BME280;41452;42.780;23.116;2022-09-03T09:47:13;94522.41;;;18.21;85.40
55590;BME280;41452;42.780;23.116;2022-09-03T09:49:56;94540.38;;;18.40;86.48
55590;BME280;41452;42.780;23.116;2022-09-03T09:52:24;94543.28;;;18.43;85.75
55590;BME280;41452;42.780;23.116;2022-09-03T09:54:51;94501.19;;;18.11;89.09
55590;BME280;41452;42.780;23.116;2022-09-03T09:57:25;94528.97;;;18.34;84.37
55590;BME280;41452;42.780;23.116;2022-09-03T10:00:19;94507.50;;;18.20;85.51
55590;BME280;41452;42.780;23.116;2022-09-03T10:02:52;94491.56;;;18.20;84.47
55590;BME280;41452;42.780;23.116;2022-09-03T10:08:04;94537.66;;;18.50;83.25
55590;BME280;41452;42.780;23.116;2022-09-03T10:10:40;94544.53;;;18.56;82.16
55590;BME280;41452;42.780;23.116;2022-09-03T10:13:17;94533.84;;;18.61;84.38
55590;BME280;41452;42.780;23.116;2022-09-03T10:15:50;94542.78;;;18.81;87.52
55590;BME280;41452;42.780;23.116;2022-09-03T10:19:33;94548.03;;;18.96;85.80
55590;BME280;41452;42.780;23.116;2022-09-03T10:26:40;94553.63;;;19.29;80.40
55590;BME280;41452;42.780;23.116;2022-09-03T10:29:06;94533.94;;;19.25;81.81
55590;BME280;41452;42.780;23.116;2022-09-03T10:50:16;94548.44;;;19.72;80.50
55590;BME280;41452;42.780;23.116;2022-09-03T11:00:49;94509.50;;;19.77;79.61
55590;BME280;41452;42.780;23.116;2022-09-03T11:06:02;94548.06;;;20.08;77.60
55590;BME280;41452;42.780;23.116;2022-09-03T11:08:36;94549.00;;;20.18;76.41
55590;BME280;41452;42.780;23.116;2022-09-03T11:13:57;94542.31;;;20.20;79.36
55590;BME280;41452;42.780;23.116;2022-09-03T11:16:32;94550.03;;;20.41;77.34
55590;BME280;41452;42.780;23.116;2022-09-03T11:19:11;94534.03;;;20.41;78.49
55590;BME280;41452;42.780;23.116;2022-09-03T11:21:40;94522.56;;;20.21;77.08
55590;BME280;41452;42.780;23.116;2022-09-03T11:24:23;94538.09;;;20.38;75.03
55590;BME280;41452;42.780;23.116;2022-09-03T11:32:38;94516.81;;;20.33;77.73
55590;BME280;41452;42.780;23.116;2022-09-03T11:40:53;94550.59;;;20.62;77.26
55590;BME280;41452;42.780;23.116;2022-09-03T11:48:45;94443.81;;;20.10;75.70
55590;BME280;41452;42.780;23.116;2022-09-03T11:51:30;94514.78;;;20.68;75.94
55590;BME280;41452;42.780;23.116;2022-09-03T11:56:39;94520.94;;;20.44;75.21
55590;BME280;41452;42.780;23.116;2022-09-03T12:01:40;94538.97;;;20.52;75.99
55590;BME280;41452;42.780;23.116;2022-09-03T12:04:09;94510.03;;;20.41;76.14
55590;BME280;41452;42.780;23.116;2022-09-03T12:07:07;94534.94;;;20.74;76.62
55590;BME280;41452;42.780;23.116;2022-09-03T12:09:51;94491.72;;;20.53;74.84
55590;BME280;41452;42.780;23.116;2022-09-03T12:20:39;94526.22;;;21.20;76.43
55590;BME280;41452;42.780;23.116;2022-09-03T12:23:05;94475.72;;;20.91;74.05
55590;BME280;41452;42.780;23.116;2022-09-03T12:25:31;94524.81;;;21.09;72.49
55590;BME280;41452;42.780;23.116;2022-09-03T12:28:00;94509.78;;;21.13;73.10
55590;BME280;41452;42.780;23.116;2022-09-03T12:30:28;94499.47;;;21.06;69.33
55590;BME280;41452;42.780;23.116;2022-09-03T12:33:16;94517.31;;;21.11;69.20
55590;BME280;41452;42.780;23.116;2022-09-03T12:35:42;94497.41;;;21.03;69.46
55590;BME280;41452;42.780;23.116;2022-09-03T12:38:08;94456.66;;;20.65;70.71
55590;BME280;41452;42.780;23.116;2022-09-03T12:40:33;94458.97;;;20.72;66.09
55590;BME280;41452;42.780;23.116;2022-09-03T12:43:16;94517.81;;;21.13;72.16
55590;BME280;41452;42.780;23.116;2022-09-03T12:45:48;94476.88;;;20.85;67.68
55590;BME280;41452;42.780;23.116;2022-09-03T12:48:17;94508.13;;;21.17;70.13
55590;BME280;41452;42.780;23.116;2022-09-03T12:50:44;94516.34;;;21.21;70.19
55590;BME280;41452;42.780;23.116;2022-09-03T12:53:13;94502.84;;;21.12;68.31
55590;BME280;41452;42.780;23.116;2022-09-03T12:55:48;94491.59;;;21.15;70.59
55590;BME280;41452;42.780;23.116;2022-09-03T13:03:53;94448.56;;;21.03;69.53
55590;BME280;41452;42.780;23.116;2022-09-03T13:06:25;94491.66;;;21.43;70.44
55590;BME280;41452;42.780;23.116;2022-09-03T13:09:12;94481.25;;;21.27;67.56
55590;BME280;41452;42.780;23.116;2022-09-03T13:11:38;94441.56;;;21.07;67.30
55590;BME280;41452;42.780;23.116;2022-09-03T13:14:09;94445.22;;;21.11;67.51
55590;BME280;41452;42.780;23.116;2022-09-03T13:16:44;94474.00;;;21.28;68.73
55590;BME280;41452;42.780;23.116;2022-09-03T13:22:29;94481.06;;;21.38;71.02
55590;BME280;41452;42.780;23.116;2022-09-03T13:27:53;94468.19;;;21.40;67.99
55590;BME280;41452;42.780;23.116;2022-09-03T13:30:33;94455.13;;;21.24;68.59
55590;BME280;41452;42.780;23.116;2022-09-03T13:41:12;94471.47;;;21.37;66.17
55590;BME280;41452;42.780;23.116;2022-09-03T13:44:05;94473.63;;;21.35;67.34
55590;BME280;41452;42.780;23.116;2022-09-03T13:46:50;94471.25;;;21.33;65.98
55590;BME280;41452;42.780;23.116;2022-09-03T13:52:42;94469.88;;;21.36;68.13
55590;BME280;41452;42.780;23.116;2022-09-03T13:58:27;94452.31;;;21.16;66.86
55590;BME280;41452;42.780;23.116;2022-09-03T14:09:13;94483.16;;;21.41;67.91
55590;BME280;41452;42.780;23.116;2022-09-03T14:11:48;94482.13;;;21.37;65.17
55590;BME280;41452;42.780;23.116;2022-09-03T14:20:03;94480.75;;;21.25;65.96
55590;BME280;41452;42.780;23.116;2022-09-03T14:25:21;94481.50;;;21.12;67.72
55590;BME280;41452;42.780;23.116;2022-09-03T14:27:47;94493.28;;;21.11;66.18
55590;BME280;41452;42.780;23.116;2022-09-03T14:38:30;94491.84;;;21.00;67.52
55590;BME280;41452;42.780;23.116;2022-09-03T14:49:31;94496.97;;;20.96;66.89
55590;BME280;41452;42.780;23.116;2022-09-03T14:57:28;94463.41;;;20.76;67.99
55590;BME280;41452;42.780;23.116;2022-09-03T15:11:00;94498.59;;;20.78;67.30
55590;BME280;41452;42.780;23.116;2022-09-03T15:13:33;94484.13;;;20.65;66.50
55590;BME280;41452;42.780;23.116;2022-09-03T15:24:34;94495.19;;;20.54;66.17
55590;BME280;41452;42.780;23.116;2022-09-03T15:35:09;94508.97;;;20.61;67.50
55590;BME280;41452;42.780;23.116;2022-09-03T15:37:45;94473.38;;;20.32;66.12
55590;BME280;41452;42.780;23.116;2022-09-03T15:42:45;94500.75;;;20.38;67.14
55590;BME280;41452;42.780;23.116;2022-09-03T15:45:24;94518.41;;;20.53;67.04
55590;BME280;41452;42.780;23.116;2022-09-03T15:47:55;94513.97;;;20.48;68.73
55590;BME280;41452;42.780;23.116;2022-09-03T15:50:36;94518.19;;;20.49;68.91
55590;BME280;41452;42.780;23.116;2022-09-03T15:55:41;94483.28;;;20.27;67.96
55590;BME280;41452;42.780;23.116;2022-09-03T16:00:57;94526.38;;;20.34;67.23
55590;BME280;41452;42.780;23.116;2022-09-03T16:03:38;94518.31;;;20.39;69.83
55590;BME280;41452;42.780;23.116;2022-09-03T16:06:32;94522.16;;;20.33;69.47
55590;BME280;41452;42.780;23.116;2022-09-03T16:09:08;94529.22;;;20.24;67.69
55590;BME280;41452;42.780;23.116;2022-09-03T16:14:45;94522.59;;;19.97;68.18
55590;BME280;41452;42.780;23.116;2022-09-03T16:28:18;94538.16;;;19.90;70.61
55590;BME280;41452;42.780;23.116;2022-09-03T16:36:50;94555.09;;;19.70;73.30
55590;BME280;41452;42.780;23.116;2022-09-03T16:39:39;94553.81;;;19.67;73.54
55590;BME280;41452;42.780;23.116;2022-09-03T16:45:02;94551.22;;;19.57;75.16
55590;BME280;41452;42.780;23.116;2022-09-03T16:47:54;94550.22;;;19.53;75.75
55590;BME280;41452;42.780;23.116;2022-09-03T16:53:14;94538.63;;;19.38;76.15
55590;BME280;41452;42.780;23.116;2022-09-03T16:58:21;94526.66;;;19.07;77.46
55590;BME280;41452;42.780;23.116;2022-09-03T17:06:50;94554.16;;;18.92;78.94
55590;BME280;41452;42.780;23.116;2022-09-03T17:17:42;94566.75;;;18.76;79.98
55590;BME280;41452;42.780;23.116;2022-09-03T17:25:36;94571.63;;;18.64;81.28
55590;BME280;41452;42.780;23.116;2022-09-03T17:28:25;94583.84;;;18.65;81.60
55590;BME280;41452;42.780;23.116;2022-09-03T17:33:53;94592.41;;;18.56;82.43
55590;BME280;41452;42.780;23.116;2022-09-03T17:36:26;94597.19;;;18.54;82.84
55590;BME280;41452;42.780;23.116;2022-09-03T17:39:35;94604.66;;;18.52;83.08
55590;BME280;41452;42.780;23.116;2022-09-03T17:42:17;94606.84;;;18.40;83.37
55590;BME280;41452;42.780;23.116;2022-09-03T17:45:43;94615.34;;;18.37;84.11
55590;BME280;41452;42.780;23.116;2022-09-03T17:51:22;94618.84;;;18.32;84.47
55590;BME280;41452;42.780;23.116;2022-09-03T17:56:32;94621.50;;;18.32;84.67
55590;BME280;41452;42.780;23.116;2022-09-03T17:59:16;94601.38;;;18.16;84.23
55590;BME280;41452;42.780;23.116;2022-09-03T18:01:51;94603.22;;;18.10;84.66
55590;BME280;41452;42.780;23.116;2022-09-03T18:07:28;94628.22;;;18.04;85.04
55590;BME280;41452;42.780;23.116;2022-09-03T18:10:23;94642.56;;;18.08;84.97
55590;BME280;41452;42.780;23.116;2022-09-03T18:15:33;94645.53;;;18.01;85.14
55590;BME280;41452;42.780;23.116;2022-09-03T18:18:27;94650.03;;;17.96;85.25
55590;BME280;41452;42.780;23.116;2022-09-03T18:20:56;94665.19;;;17.95;85.50
55590;BME280;41452;42.780;23.116;2022-09-03T18:26:55;94646.59;;;17.75;85.87
55590;BME280;41452;42.780;23.116;2022-09-03T18:29:47;94666.25;;;17.79;86.10
55590;BME280;41452;42.780;23.116;2022-09-03T18:32:32;94675.53;;;17.76;86.34
55590;BME280;41452;42.780;23.116;2022-09-03T18:35:16;94677.66;;;17.74;86.61
55590;BME280;41452;42.780;23.116;2022-09-03T18:38:04;94665.97;;;17.70;86.39
55590;BME280;41452;42.780;23.116;2022-09-03T18:41:12;94651.38;;;17.52;86.54
55590;BME280;41452;42.780;23.116;2022-09-03T18:44:28;94666.25;;;17.53;86.89
55590;BME280;41452;42.780;23.116;2022-09-03T18:47:33;94663.31;;;17.55;86.75